Time;durP1;ratioP1;P1;durP2;ratioP2;P2;SDS_P1;SDS_P2;PMS_P1;PMS_P2;Temp;Humidity;BMP_temperature;BMP_pressure;BME280_temperature;BME280_humidity;BME280_pressure;Samples;Min_cycle;Max_cycle;Signal;HPM_P1;HPM_P2
2022/10/25 00:02:22;;;;;;;43.90;24.67;;;12.30;99.90;;;;;;5092645;28;20032;-78
2022/10/25 00:04:48;;;;;;;40.33;22.08;;;12.30;99.90;;;;;;5091557;28;20017;-78
2022/10/25 00:07:14;;;;;;;52.83;25.83;;;12.30;99.90;;;;;;5093797;28;20381;-78
2022/10/25 00:09:40;;;;;;;59.33;25.88;;;12.30;99.90;;;;;;5095059;28;20035;-74
2022/10/25 00:12:06;;;;;;;61.28;27.23;;;12.30;99.90;;;;;;5096232;28;20028;-75
2022/10/25 00:14:33;;;;;;;49.80;27.98;;;12.30;99.90;;;;;;5096272;28;20027;-74
2022/10/25 00:16:58;;;;;;;70.38;29.30;;;12.30;99.90;;;;;;5096134;28;20385;-78
2022/10/25 00:19:24;;;;;;;176.65;41.47;;;12.30;99.90;;;;;;5096378;28;20028;-78
2022/10/25 00:21:50;;;;;;;94.82;30.52;;;12.30;99.90;;;;;;5111633;28;20031;-78
2022/10/25 00:24:15;;;;;;;56.20;26.55;;;12.30;99.90;;;;;;5096026;28;20041;-77
2022/10/25 00:26:41;;;;;;;85.05;30.80;;;12.30;99.90;;;;;;5111599;28;20024;-74
2022/10/25 00:29:08;;;;;;;59.33;26.20;;;12.30;99.90;;;;;;5095897;28;20118;-78
2022/10/25 00:31:34;;;;;;;97.47;34.30;;;12.30;99.90;;;;;;5095867;28;20028;-77
2022/10/25 00:33:59;;;;;;;103.88;33.90;;;12.30;99.90;;;;;;5095838;28;20020;-74
2022/10/25 00:36:26;;;;;;;69.97;28.45;;;12.30;99.90;;;;;;5095736;28;20070;-75
2022/10/25 00:38:52;;;;;;;65.35;27.13;;;12.30;99.90;;;;;;5095626;28;20048;-74
2022/10/25 00:41:21;;;;;;;70.18;29.02;;;12.30;99.90;;;;;;5095365;28;20031;-79
2022/10/25 00:43:52;;;;;;;73.90;30.58;;;12.30;99.90;;;;;;5095492;28;20069;-74
2022/10/25 00:46:24;;;;;;;71.78;32.72;;;12.30;99.90;;;;;;5094414;28;20048;-74
2022/10/25 00:49:07;;;;;;;64.72;28.17;;;12.30;99.90;;;;;;5094263;28;20097;-74
2022/10/25 00:51:48;;;;;;;64.25;28.25;;;12.30;99.90;;;;;;5095571;28;20024;-74
2022/10/25 00:54:19;;;;;;;79.97;30.15;;;12.30;99.90;;;;;;5095488;28;20103;-74
2022/10/25 00:56:46;;;;;;;93.28;32.80;;;12.20;99.90;;;;;;5095584;28;20020;-74
2022/10/25 00:59:17;;;;;;;82.80;32.33;;;12.30;99.90;;;;;;5095269;28;20027;-78
2022/10/25 01:01:43;;;;;;;77.03;32.20;;;12.30;99.90;;;;;;5093577;28;20040;-74
2022/10/25 01:04:12;;;;;;;75.45;33.00;;;12.20;99.90;;;;;;5095240;28;20051;-74
2022/10/25 01:06:41;;;;;;;83.40;31.85;;;12.20;99.90;;;;;;5093803;28;20034;-77
2022/10/25 01:09:09;;;;;;;72.20;32.53;;;12.20;99.90;;;;;;5094877;28;20199;-74
2022/10/25 01:11:36;;;;;;;72.00;32.08;;;12.20;99.90;;;;;;5095193;28;20024;-74
2022/10/25 01:14:03;;;;;;;104.55;38.90;;;12.20;99.90;;;;;;5093873;28;20024;-74
2022/10/25 01:16:44;;;;;;;65.80;31.63;;;12.20;99.90;;;;;;5093367;28;20103;-78
2022/10/25 01:19:27;;;;;;;74.15;32.83;;;12.20;99.90;;;;;;5093575;28;20020;-74
2022/10/25 01:22:12;;;;;;;74.80;33.05;;;12.20;99.90;;;;;;5094983;28;20078;-74
2022/10/25 01:25:07;;;;;;;71.40;32.22;;;12.20;99.90;;;;;;5094420;28;20024;-78
2022/10/25 01:27:45;;;;;;;68.90;32.92;;;12.20;99.90;;;;;;5094920;28;20063;-78
2022/10/25 01:30:16;;;;;;;64.43;30.45;;;12.20;99.90;;;;;;5093473;28;20385;-78
2022/10/25 01:32:55;;;;;;;73.95;32.33;;;12.20;99.90;;;;;;5094753;28;20020;-74
2022/10/25 01:35:38;;;;;;;70.15;31.60;;;12.10;99.90;;;;;;5098755;28;20095;-78
2022/10/25 01:38:13;;;;;;;73.63;34.10;;;12.10;99.90;;;;;;5115094;28;20051;-74
2022/10/25 01:41:02;;;;;;;58.08;29.92;;;12.10;99.90;;;;;;5114935;28;20031;-77
2022/10/25 01:43:56;;;;;;;69.85;35.15;;;12.10;99.90;;;;;;5114818;28;20016;-77
2022/10/25 01:46:30;;;;;;;70.50;33.45;;;12.10;99.90;;;;;;5074281;28;20025;-77
2022/10/25 01:49:09;;;;;;;78.13;35.10;;;12.00;99.90;;;;;;5074233;28;20500;-78
2022/10/25 01:51:36;;;;;;;67.50;35.03;;;12.00;99.90;;;;;;5074246;28;20052;-74
2022/10/25 01:54:02;;;;;;;71.40;33.45;;;12.00;99.90;;;;;;5074024;28;20025;-79
2022/10/25 01:56:40;;;;;;;65.72;32.22;;;12.00;99.90;;;;;;5073862;28;20505;-77
2022/10/25 01:59:37;;;;;;;64.50;31.85;;;12.00;99.90;;;;;;5089734;28;20389;-78
2022/10/25 02:02:35;;;;;;;68.25;33.90;;;12.00;99.90;;;;;;5072723;28;20089;-79
2022/10/25 02:05:14;;;;;;;75.85;35.92;;;12.00;99.90;;;;;;5069923;28;20076;-78
2022/10/25 02:07:58;;;;;;;76.43;34.78;;;12.00;99.90;;;;;;5073903;28;20028;-78
2022/10/25 02:10:57;;;;;;;69.72;33.85;;;11.90;99.90;;;;;;5073632;28;20052;-78
2022/10/25 02:13:43;;;;;;;71.80;36.40;;;11.90;99.90;;;;;;5073682;28;20100;-78
2022/10/25 02:16:26;;;;;;;80.28;37.13;;;11.90;99.90;;;;;;5101843;28;20028;-74
2022/10/25 02:18:54;;;;;;;;;;;11.90;99.90;;;;;;5094216;28;20031;-78
2022/10/25 02:21:21;;;;;;;85.55;37.72;;;11.90;99.90;;;;;;5092381;28;19922;-78
2022/10/25 02:23:49;;;;;;;87.10;40.28;;;11.90;99.90;;;;;;5093773;28;20062;-78
2022/10/25 02:26:17;;;;;;;84.72;39.88;;;11.90;99.90;;;;;;5093699;28;20099;-74
2022/10/25 02:28:44;;;;;;;89.07;40.17;;;11.90;99.90;;;;;;5092898;28;20027;-77
2022/10/25 02:31:15;;;;;;;91.53;42.28;;;11.90;99.90;;;;;;5093758;28;20028;-78
2022/10/25 02:33:43;;;;;;;105.32;42.97;;;11.90;99.90;;;;;;5093587;28;20085;-78
2022/10/25 02:36:12;;;;;;;84.97;42.47;;;11.90;99.90;;;;;;5093577;28;20488;-78
2022/10/25 02:38:38;;;;;;;84.50;40.70;;;11.90;99.90;;;;;;5093278;28;20056;-78
2022/10/25 02:41:05;;;;;;;85.82;42.22;;;11.80;99.90;;;;;;5093458;28;20431;-74
2022/10/25 02:43:31;;;;;;;104.43;43.78;;;11.90;99.90;;;;;;5093531;28;20047;-74
2022/10/25 02:45:58;;;;;;;99.07;42.08;;;11.90;99.90;;;;;;5093444;28;20145;-74
2022/10/25 02:48:23;;;;;;;93.60;40.97;;;11.90;99.90;;;;;;5093477;28;20472;-77
2022/10/25 02:50:49;;;;;;;72.13;36.83;;;11.90;99.90;;;;;;5092906;28;20109;-74
2022/10/25 02:53:14;;;;;;;87.32;39.30;;;11.90;99.90;;;;;;5092181;28;20012;-74
2022/10/25 02:55:40;;;;;;;78.70;38.17;;;11.80;99.90;;;;;;5093190;28;20063;-74
2022/10/25 02:58:05;;;;;;;86.85;41.95;;;11.80;99.90;;;;;;5093515;28;20020;-78
2022/10/25 03:00:31;;;;;;;95.45;42.88;;;11.80;99.90;;;;;;5093203;28;20639;-74
2022/10/25 03:02:57;;;;;;;84.30;41.60;;;11.80;99.90;;;;;;5093341;28;20415;-74
2022/10/25 03:05:22;;;;;;;97.60;45.20;;;11.80;99.90;;;;;;5093330;28;20492;-78
2022/10/25 03:07:48;;;;;;;95.03;43.45;;;11.80;99.90;;;;;;5093452;28;20095;-78
2022/10/25 03:10:13;;;;;;;96.65;42.80;;;11.80;99.90;;;;;;5091880;28;20024;-74
2022/10/25 03:12:39;;;;;;;94.13;39.80;;;11.70;99.90;;;;;;5093271;28;20432;-78
2022/10/25 03:15:05;;;;;;;88.68;40.90;;;11.70;99.90;;;;;;5091802;28;20059;-78
2022/10/25 03:17:31;;;;;;;93.45;42.78;;;11.70;99.90;;;;;;5093235;28;20035;-75
2022/10/25 03:19:56;;;;;;;92.82;40.95;;;11.70;99.90;;;;;;5093042;28;20016;-74
2022/10/25 03:22:22;;;;;;;92.25;41.95;;;11.70;99.90;;;;;;5093072;28;20086;-78
2022/10/25 03:24:47;;;;;;;89.50;43.58;;;11.70;99.90;;;;;;5093074;28;20104;-78
2022/10/25 03:27:13;;;;;;;112.47;45.80;;;11.70;99.90;;;;;;5092966;28;20099;-78
2022/10/25 03:29:39;;;;;;;101.10;44.22;;;11.70;99.90;;;;;;5091774;28;20028;-78
2022/10/25 03:32:06;;;;;;;100.55;45.03;;;11.70;99.90;;;;;;5093125;28;20024;-78
2022/10/25 03:34:32;;;;;;;106.72;46.83;;;11.70;99.90;;;;;;5092940;28;20495;-74
2022/10/25 03:36:58;;;;;;;101.25;44.17;;;11.60;99.90;;;;;;5111462;28;20142;-78
2022/10/25 03:39:23;;;;;;;108.63;44.80;;;11.70;99.90;;;;;;5113082;28;20125;-74
2022/10/25 03:41:49;;;;;;;102.05;45.05;;;11.70;99.90;;;;;;5116983;28;20392;-78
2022/10/25 03:44:15;;;;;;;96.65;43.30;;;11.60;99.90;;;;;;5107814;28;20031;-78
2022/10/25 03:46:41;;;;;;;96.40;43.90;;;11.60;99.90;;;;;;5096667;28;20065;-78
2022/10/25 03:49:06;;;;;;;96.78;45.80;;;11.60;99.90;;;;;;5112420;28;20028;-74
2022/10/25 03:51:32;;;;;;;111.07;44.67;;;11.60;99.90;;;;;;5096650;28;20035;-74
2022/10/25 03:53:58;;;;;;;115.10;46.30;;;11.50;99.90;;;;;;5096704;28;20031;-74
2022/10/25 03:56:24;;;;;;;102.10;45.90;;;11.60;99.90;;;;;;5096547;28;20020;-78
2022/10/25 03:58:49;;;;;;;101.68;43.97;;;11.50;99.90;;;;;;5096513;28;20024;-73
2022/10/25 04:01:15;;;;;;;114.93;44.70;;;11.50;99.90;;;;;;5096365;28;20082;-78
2022/10/25 04:03:42;;;;;;;112.68;40.90;;;11.50;99.90;;;;;;5096448;28;20028;-74
2022/10/25 04:06:08;;;;;;;102.78;40.55;;;11.50;99.90;;;;;;5096394;28;20047;-75
2022/10/25 04:08:33;;;;;;;109.82;40.25;;;11.50;99.90;;;;;;5096472;28;20059;-78
2022/10/25 04:10:59;;;;;;;130.77;46.00;;;11.50;99.90;;;;;;5111772;28;20028;-74
2022/10/25 04:13:25;;;;;;;138.45;46.33;;;11.40;99.90;;;;;;5094477;28;20465;-74
2022/10/25 04:15:50;;;;;;;108.63;41.97;;;11.40;99.90;;;;;;5095868;28;20027;-78
2022/10/25 04:18:16;;;;;;;120.55;45.70;;;11.40;99.90;;;;;;5094602;28;20030;-78
2022/10/25 04:20:41;;;;;;;91.40;36.28;;;11.30;99.90;;;;;;5095749;28;20063;-74
2022/10/25 04:23:07;;;;;;;95.35;38.75;;;11.30;99.90;;;;;;5096017;28;20024;-78
2022/10/25 04:25:32;;;;;;;101.80;37.88;;;11.30;99.90;;;;;;5094569;28;20031;-74
2022/10/25 04:27:59;;;;;;;128.40;42.08;;;11.30;99.90;;;;;;5095862;28;20122;-74
2022/10/25 04:30:24;;;;;;;92.80;35.80;;;11.30;99.90;;;;;;5095743;28;20481;-78
2022/10/25 04:32:50;;;;;;;106.10;38.20;;;11.20;99.90;;;;;;5094643;28;20039;-74
2022/10/25 04:35:16;;;;;;;88.63;37.00;;;11.20;99.90;;;;;;5100308;28;20069;-78
2022/10/25 04:37:41;;;;;;;97.10;34.85;;;11.20;99.90;;;;;;5116047;28;20035;-79
2022/10/25 04:40:08;;;;;;;111.90;37.40;;;11.20;99.90;;;;;;5116023;27;20048;-78
2022/10/25 04:42:34;;;;;;;103.47;38.15;;;11.30;99.90;;;;;;5115943;28;20042;-74
2022/10/25 04:45:00;;;;;;;119.18;41.70;;;11.20;99.90;;;;;;5118549;27;20103;-74
2022/10/25 04:47:29;;;;;;;105.95;37.33;;;11.30;99.90;;;;;;5095429;28;20034;-78
2022/10/25 04:49:54;;;;;;;88.47;35.58;;;11.30;99.90;;;;;;5094141;28;20473;-78
2022/10/25 04:52:20;;;;;;;93.13;37.13;;;11.30;99.90;;;;;;5094108;28;20020;-74
2022/10/25 04:54:46;;;;;;;96.13;38.70;;;11.20;99.90;;;;;;5094941;28;20495;-74
2022/10/25 04:57:11;;;;;;;107.88;37.78;;;11.20;99.90;;;;;;5094747;28;20030;-74
2022/10/25 04:59:37;;;;;;;96.47;37.35;;;11.20;99.90;;;;;;5095467;28;20105;-79
2022/10/25 05:02:03;;;;;;;103.07;39.70;;;11.20;99.90;;;;;;5094873;28;20048;-74
2022/10/25 05:04:28;;;;;;;96.47;39.00;;;11.20;99.90;;;;;;5094063;28;20028;-78
2022/10/25 05:06:54;;;;;;;87.10;36.08;;;11.20;99.90;;;;;;5086632;28;20020;-74
2022/10/25 05:09:19;;;;;;;105.20;40.67;;;11.20;99.90;;;;;;5094836;28;20032;-78
2022/10/25 05:11:45;;;;;;;108.55;39.90;;;11.20;99.90;;;;;;5093766;28;20127;-74
2022/10/25 05:14:10;;;;;;;114.97;42.50;;;11.20;99.90;;;;;;5094983;28;20032;-74
2022/10/25 05:16:38;;;;;;;99.30;41.40;;;11.20;99.90;;;;;;5094855;28;20024;-75
2022/10/25 05:19:03;;;;;;;95.30;35.78;;;11.20;99.90;;;;;;5094444;28;20028;-74
2022/10/25 05:21:29;;;;;;;120.93;42.20;;;11.20;99.90;;;;;;5092935;28;20089;-78
2022/10/25 05:23:56;;;;;;;102.57;41.33;;;11.20;99.90;;;;;;5092240;28;20031;-75
2022/10/25 05:26:22;;;;;;;128.63;42.20;;;11.20;99.90;;;;;;5093517;28;20020;-78
2022/10/25 05:28:50;;;;;;;132.52;44.92;;;11.20;99.90;;;;;;5089705;28;20024;-78
2022/10/25 05:31:19;;;;;;;103.47;39.55;;;11.20;99.90;;;;;;5091458;28;20059;-78
2022/10/25 05:33:47;;;;;;;133.07;42.33;;;11.20;99.90;;;;;;5091666;28;20024;-74
2022/10/25 05:36:13;;;;;;;105.43;40.15;;;11.20;99.90;;;;;;5095596;28;20074;-73
2022/10/25 05:38:39;;;;;;;107.65;41.75;;;11.20;99.90;;;;;;5091452;28;20044;-74
2022/10/25 05:41:05;;;;;;;127.55;45.00;;;11.20;99.90;;;;;;5093015;28;20071;-74
2022/10/25 05:43:31;;;;;;;110.07;41.97;;;11.20;99.90;;;;;;5092472;28;20477;-78
2022/10/25 05:46:07;;;;;;;108.22;41.30;;;11.20;99.90;;;;;;5092642;28;20044;-78
2022/10/25 05:48:34;;;;;;;92.90;38.33;;;11.20;99.90;;;;;;5090057;28;20093;-78
2022/10/25 05:51:17;;;;;;;111.07;40.60;;;11.20;99.90;;;;;;5095786;28;20058;-78
2022/10/25 05:53:48;;;;;;;90.07;38.38;;;11.20;99.90;;;;;;5101897;28;20027;-74
2022/10/25 05:56:14;;;;;;;99.38;39.95;;;11.30;99.90;;;;;;5109977;28;20016;-74
2022/10/25 05:58:41;;;;;;;91.93;37.78;;;11.30;99.90;;;;;;5104217;28;20477;-77
2022/10/25 06:01:11;;;;;;;101.82;38.20;;;11.30;99.90;;;;;;5110661;28;20481;-78
2022/10/25 06:03:37;;;;;;;92.82;36.83;;;11.30;99.90;;;;;;5111347;28;20076;-75
2022/10/25 06:06:06;;;;;;;100.60;39.65;;;11.40;99.90;;;;;;5126096;27;20015;-75
2022/10/25 06:08:32;;;;;;;94.43;38.90;;;11.30;99.90;;;;;;5111275;28;20028;-90
2022/10/25 06:11:04;;;;;;;84.32;36.33;;;11.40;99.90;;;;;;5108692;28;20492;-88
2022/10/25 06:13:30;;;;;;;92.10;35.90;;;11.40;99.90;;;;;;5103045;28;20512;-89
2022/10/25 06:15:56;;;;;;;83.70;34.80;;;11.40;99.90;;;;;;5128634;27;20027;-77
2022/10/25 06:18:22;;;;;;;79.75;34.35;;;11.40;99.90;;;;;;5111360;28;20519;-89
2022/10/25 06:20:47;;;;;;;92.10;38.63;;;11.40;99.90;;;;;;5104772;28;20071;-88
2022/10/25 06:23:13;;;;;;;86.00;36.63;;;11.40;99.90;;;;;;5091534;27;20509;-88
2022/10/25 06:25:38;;;;;;;91.13;40.67;;;11.40;99.90;;;;;;5104915;28;20406;-77
2022/10/25 06:28:04;;;;;;;243.90;110.65;;;11.40;99.90;;;;;;5102919;28;20389;-77
2022/10/25 06:30:31;;;;;;;138.13;68.55;;;11.50;99.90;;;;;;5099317;28;20028;-87
2022/10/25 06:32:57;;;;;;;107.72;49.05;;;11.50;99.90;;;;;;5110194;28;20039;-77
2022/10/25 06:35:22;;;;;;;118.85;61.20;;;11.50;99.90;;;;;;5110686;28;20023;-77
2022/10/25 06:37:48;;;;;;;121.80;63.35;;;11.60;99.90;;;;;;5112429;28;20028;-76
2022/10/25 06:40:14;;;;;;;271.20;148.70;;;11.60;99.90;;;;;;5112384;28;20063;-77
2022/10/25 06:42:39;;;;;;;265.92;139.93;;;11.60;99.90;;;;;;5114099;28;20466;-86
2022/10/25 06:45:06;;;;;;;347.85;195.27;;;11.70;99.90;;;;;;5098525;28;20455;-87
2022/10/25 06:47:32;;;;;;;326.08;181.63;;;11.70;99.90;;;;;;5090900;28;20023;-86
2022/10/25 06:49:57;;;;;;;406.27;223.52;;;11.70;99.90;;;;;;5100013;28;20022;-77
2022/10/25 06:52:23;;;;;;;438.45;229.68;;;11.80;99.90;;;;;;5111488;28;20118;-77
2022/10/25 06:54:48;;;;;;;281.88;133.60;;;11.80;99.90;;;;;;5111472;28;20023;-88
2022/10/25 06:57:14;;;;;;;157.10;67.47;;;11.80;99.90;;;;;;5128705;28;20431;-77
2022/10/25 06:59:40;;;;;;;425.02;236.30;;;11.80;99.90;;;;;;5111322;28;20420;-88
2022/10/25 07:02:05;;;;;;;308.38;129.15;;;11.90;99.90;;;;;;5128739;28;20393;-86
2022/10/25 07:04:31;;;;;;;150.98;57.20;;;11.90;99.90;;;;;;5112484;28;20020;-77
2022/10/25 07:06:57;;;;;;;104.03;43.08;;;11.90;99.90;;;;;;5113740;28;20027;-77
2022/10/25 07:09:24;;;;;;;97.43;42.38;;;12.00;99.90;;;;;;5113808;28;20028;-88
2022/10/25 07:11:50;;;;;;;95.88;46.70;;;12.00;99.90;;;;;;5129698;28;20016;-78
2022/10/25 07:14:16;;;;;;;152.85;88.20;;;12.00;99.90;;;;;;5112381;28;20027;-77
2022/10/25 07:16:42;;;;;;;210.45;105.07;;;12.10;99.90;;;;;;5116258;28;20016;-88
2022/10/25 07:19:08;;;;;;;118.75;52.25;;;12.10;99.90;;;;;;5117683;28;20039;-77
2022/10/25 07:21:34;;;;;;;100.07;41.83;;;12.20;99.90;;;;;;5116470;28;20440;-77
2022/10/25 07:24:00;;;;;;;81.93;39.33;;;12.20;99.90;;;;;;5116269;28;20119;-89
2022/10/25 07:26:32;;;;;;;79.40;37.08;;;12.30;99.90;;;;;;5117780;28;20030;-88
2022/10/25 07:28:59;;;;;;;79.93;39.05;;;12.40;99.90;;;;;;5117777;27;20024;-77
2022/10/25 07:31:30;;;;;;;86.75;49.38;;;12.40;99.90;;;;;;5117737;28;20031;-77
2022/10/25 07:33:59;;;;;;;86.45;45.88;;;12.50;99.90;;;;;;5117595;27;20377;-89
2022/10/25 07:36:25;;;;;;;80.95;37.60;;;12.50;99.90;;;;;;5101341;28;20063;-77
2022/10/25 07:38:51;;;;;;;72.65;35.67;;;12.60;99.90;;;;;;5108285;28;20043;-77
2022/10/25 07:41:16;;;;;;;56.72;30.80;;;12.70;99.90;;;;;;5117431;28;20122;-87
2022/10/25 07:43:42;;;;;;;55.72;28.58;;;12.70;99.90;;;;;;5112565;28;20028;-77
2022/10/25 07:46:08;;;;;;;61.05;33.55;;;12.60;99.90;;;;;;5096901;28;20016;-86
2022/10/25 07:48:34;;;;;;;56.53;31.75;;;12.70;99.90;;;;;;5096945;28;20025;-77
2022/10/25 07:51:09;;;;;;;73.88;42.47;;;12.70;99.90;;;;;;5095673;28;20023;-77
2022/10/25 07:53:34;;;;;;;62.03;32.97;;;12.80;99.90;;;;;;5096805;28;20431;-88
2022/10/25 07:56:01;;;;;;;52.15;29.58;;;12.90;99.90;;;;;;5096923;28;20160;-89
2022/10/25 07:58:26;;;;;;;46.90;25.95;;;13.00;99.90;;;;;;5096638;28;20031;-89
2022/10/25 08:00:52;;;;;;;45.15;24.98;;;13.00;99.90;;;;;;5095380;28;20021;-89
2022/10/25 08:03:17;;;;;;;41.78;23.98;;;13.10;99.90;;;;;;5096510;28;20016;-77
2022/10/25 08:05:45;;;;;;;43.35;24.60;;;13.20;99.90;;;;;;5095140;28;20023;-89
2022/10/25 08:08:11;;;;;;;46.88;27.55;;;13.30;99.90;;;;;;5114314;28;20077;-89
2022/10/25 08:10:37;;;;;;;50.25;29.58;;;13.40;99.90;;;;;;5132621;27;20486;-89
2022/10/25 08:13:03;;;;;;;52.38;26.45;;;13.40;99.90;;;;;;5116925;28;20024;-78
2022/10/25 08:15:28;;;;;;;43.13;26.20;;;13.40;99.90;;;;;;5115432;28;20023;-89
2022/10/25 08:18:01;;;;;;;40.65;24.67;;;13.50;99.90;;;;;;5116896;28;20358;-87
2022/10/25 08:20:27;;;;;;;41.47;23.65;;;13.50;99.90;;;;;;5132462;27;20020;-77
2022/10/25 08:22:59;;;;;;;47.25;32.97;;;13.50;99.90;;;;;;5115516;28;20031;-78
2022/10/25 08:25:26;;;;;;;79.93;52.05;;;13.60;99.90;;;;;;5116501;28;20076;-89
2022/10/25 08:27:52;;;;;;;58.08;27.75;;;13.60;99.90;;;;;;5104718;28;20444;-89
2022/10/25 08:30:18;;;;;;;47.80;25.25;;;13.60;99.90;;;;;;5096016;28;20052;-76
2022/10/25 08:32:43;;;;;;;41.30;23.05;;;13.70;99.90;;;;;;5094861;28;20385;-88
2022/10/25 08:35:09;;;;;;;38.05;23.02;;;13.60;99.90;;;;;;5116358;27;20023;-89
2022/10/25 08:37:34;;;;;;;38.08;25.00;;;13.60;99.90;;;;;;5116356;28;20023;-78
2022/10/25 08:40:00;;;;;;;48.40;34.42;;;13.50;99.90;;;;;;5116345;27;20133;-86
2022/10/25 08:42:56;;;;;;;46.10;27.42;;;13.50;99.90;;;;;;5116193;28;20063;-77
2022/10/25 08:45:43;;;;;;;34.97;22.92;;;13.60;99.90;;;;;;5098398;28;20016;-77
2022/10/25 08:48:15;;;;;;;37.28;21.95;;;13.60;99.90;;;;;;5094628;28;20021;-89
2022/10/25 08:50:48;;;;;;;41.67;26.20;;;13.60;99.90;;;;;;5094401;28;20027;-90
2022/10/25 08:53:21;;;;;;;38.15;23.60;;;13.60;99.90;;;;;;5094413;28;20021;-89
2022/10/25 08:55:48;;;;;;;42.97;25.63;;;13.50;99.90;;;;;;5095656;28;20020;-78
2022/10/25 08:58:21;;;;;;;47.97;28.52;;;13.50;99.90;;;;;;5094351;28;20016;-88
2022/10/25 09:00:48;;;;;;;49.80;28.30;;;13.40;99.90;;;;;;5094246;28;20468;-83
2022/10/25 09:03:23;;;;;;;47.88;27.08;;;13.40;99.90;;;;;;5095555;28;20054;-77
2022/10/25 09:06:26;;;;;;;47.05;26.60;;;13.30;99.90;;;;;;5095505;28;20067;-88
2022/10/25 09:08:59;;;;;;;43.10;25.10;;;13.30;99.90;;;;;;5095454;28;20023;-76
2022/10/25 09:11:43;;;;;;;36.78;22.30;;;13.10;99.90;;;;;;5094178;28;20054;-76
2022/10/25 09:14:48;;;;;;;41.25;23.65;;;13.00;99.90;;;;;;5094066;28;20385;-87
2022/10/25 09:17:20;;;;;;;38.92;23.13;;;12.90;99.90;;;;;;5099053;28;20036;-88
2022/10/25 09:19:54;;;;;;;38.90;24.08;;;12.90;99.90;;;;;;5115631;28;20420;-87
2022/10/25 09:22:37;;;;;;;38.72;23.27;;;12.80;99.90;;;;;;5115583;28;20040;-87
2022/10/25 09:25:24;;;;;;;38.38;23.88;;;12.80;99.90;;;;;;5115177;28;20030;-77
2022/10/25 09:27:58;;;;;;;40.35;24.38;;;12.80;99.90;;;;;;5115576;28;20016;-77
2022/10/25 09:30:24;;;;;;;47.42;28.23;;;12.80;99.90;;;;;;5115287;28;20110;-87
2022/10/25 09:33:02;;;;;;;55.03;39.58;;;12.70;99.90;;;;;;5115350;28;20059;-86
2022/10/25 09:35:42;;;;;;;121.22;69.85;;;12.80;99.90;;;;;;5106084;28;20043;-77
2022/10/25 09:38:22;;;;;;;44.25;27.67;;;12.80;99.90;;;;;;5094556;28;20017;-87
2022/10/25 09:41:00;;;;;;;37.25;24.02;;;12.80;99.90;;;;;;5093332;28;20058;-77
2022/10/25 09:43:48;;;;;;;41.67;25.75;;;12.80;99.90;;;;;;5093269;28;20088;-77
2022/10/25 09:46:35;;;;;;;41.45;28.25;;;12.80;99.90;;;;;;5094771;28;20012;-87
2022/10/25 09:49:07;;;;;;;41.08;26.17;;;12.90;99.90;;;;;;5094645;28;20040;-77
2022/10/25 09:51:56;;;;;;;41.28;23.23;;;12.80;99.90;;;;;;5093202;28;20082;-88
2022/10/25 09:54:59;;;;;;;43.92;26.42;;;12.80;99.90;;;;;;5091217;28;20039;-77
2022/10/25 09:57:25;;;;;;;34.45;22.38;;;12.80;99.90;;;;;;5094652;28;20103;-87
2022/10/25 09:59:50;;;;;;;36.00;21.52;;;12.90;99.90;;;;;;5093079;28;20114;-87
2022/10/25 10:02:26;;;;;;;31.80;22.25;;;12.90;99.90;;;;;;5092944;28;20040;-87
2022/10/25 10:04:52;;;;;;;32.80;21.00;;;13.00;99.90;;;;;;5094403;28;20452;-77
2022/10/25 10:07:36;;;;;;;28.85;20.02;;;13.10;99.90;;;;;;5092807;28;20023;-77
2022/10/25 10:10:06;;;;;;;31.33;20.40;;;13.20;99.90;;;;;;5094368;28;20027;-87
2022/10/25 10:12:41;;;;;;;28.92;19.30;;;13.20;99.90;;;;;;5094231;28;20030;-87
2022/10/25 10:15:43;;;;;;;29.10;18.85;;;13.20;99.90;;;;;;5094297;28;20377;-77
2022/10/25 10:18:30;;;;;;;28.15;19.33;;;13.30;99.90;;;;;;5085998;28;20405;-77
2022/10/25 10:21:13;;;;;;;32.13;19.33;;;13.30;99.90;;;;;;5092655;28;20536;-88
2022/10/25 10:23:41;;;;;;;;;;;13.30;99.90;;;;;;5093191;28;20027;-77
2022/10/25 10:26:21;;;;;;;28.95;18.10;;;13.30;99.90;;;;;;5092772;28;20372;-78
2022/10/25 10:28:49;;;;;;;31.17;18.67;;;13.20;99.90;;;;;;5089871;28;20020;-77
2022/10/25 10:31:16;;;;;;;31.35;20.20;;;13.20;99.90;;;;;;5097766;28;20430;-87
2022/10/25 10:33:50;;;;;;;26.10;19.60;;;13.30;99.90;;;;;;5111455;28;20042;-77
2022/10/25 10:36:25;;;;;;;31.15;19.27;;;13.30;99.90;;;;;;5101058;28;20043;-77
2022/10/25 10:38:51;;;;;;;31.65;22.48;;;13.40;99.90;;;;;;5089008;28;20043;-76
2022/10/25 10:41:27;;;;;;;30.30;19.80;;;13.40;99.90;;;;;;5106403;28;20036;-77
2022/10/25 10:44:18;;;;;;;27.40;18.35;;;13.40;99.90;;;;;;5106818;28;20499;-77
2022/10/25 10:46:46;;;;;;;29.48;19.88;;;13.40;99.90;;;;;;5101583;28;20032;-89
2022/10/25 10:49:13;;;;;;;31.38;20.73;;;13.50;99.90;;;;;;5101425;28;20073;-89
2022/10/25 10:51:42;;;;;;;27.83;19.17;;;13.50;99.90;;;;;;5105128;28;20031;-88
2022/10/25 10:54:45;;;;;;;27.90;19.42;;;13.50;99.90;;;;;;5103281;28;20480;-78
2022/10/25 10:57:28;;;;;;;31.77;21.55;;;13.50;99.90;;;;;;5106559;28;20089;-90
2022/10/25 10:59:55;;;;;;;34.38;22.63;;;13.50;99.90;;;;;;5110774;28;20500;-89
2022/10/25 11:02:28;;;;;;;34.75;20.23;;;13.50;99.90;;;;;;5106656;28;20616;-89
2022/10/25 11:04:55;;;;;;;30.48;21.00;;;13.60;99.90;;;;;;5104127;28;20028;-77
2022/10/25 11:07:28;;;;;;;34.28;21.23;;;13.60;99.90;;;;;;5108387;28;20040;-88
2022/10/25 11:10:14;;;;;;;27.50;20.25;;;13.60;99.90;;;;;;5112093;28;20072;-90
2022/10/25 11:12:40;;;;;;;32.83;21.45;;;13.60;99.90;;;;;;5100693;28;20032;-78
2022/10/25 11:15:15;;;;;;;36.30;21.73;;;13.60;99.90;;;;;;5109882;28;20565;-77
2022/10/25 11:18:08;;;;;;;32.53;19.88;;;13.60;99.90;;;;;;5110482;28;20123;-90
2022/10/25 11:20:45;;;;;;;;;;;13.50;99.90;;;;;;5093256;28;20032;-89
2022/10/25 11:23:56;;;;;;;28.98;18.88;;;13.40;99.90;;;;;;5102561;28;19958;-78
2022/10/25 11:26:46;;;;;;;31.15;19.40;;;13.50;99.90;;;;;;5110551;28;20059;-77
2022/10/25 11:29:39;;;;;;;27.95;19.77;;;13.50;99.90;;;;;;5104750;28;20048;-88
2022/10/25 11:32:30;;;;;;;28.10;18.13;;;13.50;99.90;;;;;;5091815;28;20028;-89
2022/10/25 11:35:14;;;;;;;30.77;18.45;;;13.60;99.90;;;;;;5090694;28;20041;-78
2022/10/25 11:37:45;;;;;;;27.15;18.02;;;13.70;99.90;;;;;;5095593;28;20067;-77
2022/10/25 11:40:16;;;;;;;23.77;15.60;;;13.80;99.90;;;;;;5097715;28;20099;-78
2022/10/25 11:43:16;;;;;;;25.23;15.95;;;13.90;99.90;;;;;;5103417;28;20062;-77
2022/10/25 11:45:47;;;;;;;25.30;17.10;;;14.00;99.90;;;;;;5082381;28;20151;-90
2022/10/25 11:49:01;;;;;;;25.88;16.27;;;14.10;99.90;;;;;;5088055;28;20503;-90
2022/10/25 11:51:41;;;;;;;26.85;17.42;;;14.20;99.90;;;;;;5088174;28;20434;-90
2022/10/25 11:54:13;;;;;;;26.92;18.52;;;14.30;99.90;;;;;;5092641;28;20020;-90
2022/10/25 11:56:59;;;;;;;27.23;18.40;;;14.40;99.90;;;;;;5089302;28;20025;-90
2022/10/25 12:00:00;;;;;;;24.67;16.52;;;14.40;99.90;;;;;;5093483;28;20023;-89
2022/10/25 12:03:04;;;;;;;27.48;18.52;;;14.40;99.90;;;;;;5094402;28;20073;-88
2022/10/25 12:05:59;;;;;;;27.27;18.42;;;14.50;99.90;;;;;;5086550;28;20024;-89
2022/10/25 12:08:46;;;;;;;26.85;18.05;;;14.60;99.90;;;;;;5079730;28;20043;-90
2022/10/25 12:11:24;;;;;;;28.77;19.98;;;14.70;99.90;;;;;;5090330;28;20028;-89
2022/10/25 12:13:53;;;;;;;24.67;17.40;;;14.80;99.90;;;;;;5086992;28;20028;-78
2022/10/25 12:16:22;;;;;;;27.48;17.75;;;14.80;99.90;;;;;;5103505;28;20034;-78
2022/10/25 12:18:58;;;;;;;27.52;17.75;;;14.90;99.90;;;;;;5112496;28;20024;-78
2022/10/25 12:21:29;;;;;;;27.13;17.00;;;14.90;99.90;;;;;;5114660;28;20032;-78
2022/10/25 12:23:55;;;;;;;24.75;17.00;;;14.90;99.90;;;;;;5097079;28;20102;-78
2022/10/25 12:26:26;;;;;;;26.17;17.85;;;15.00;99.90;;;;;;5101245;28;20108;-79
2022/10/25 12:28:53;;;;;;;21.75;17.33;;;14.90;99.90;;;;;;5093285;28;20020;-78
2022/10/25 12:31:25;;;;;;;22.17;16.73;;;14.90;99.90;;;;;;5104462;28;20062;-79
2022/10/25 12:33:54;;;;;;;;;;;14.90;99.90;;;;;;5105732;28;20028;-78
2022/10/25 12:36:43;;;;;;;21.88;14.38;;;14.90;99.90;;;;;;5104670;28;19903;-78
2022/10/25 12:39:18;;;;;;;19.73;14.30;;;14.90;99.90;;;;;;5097366;28;20051;-78
2022/10/25 12:41:50;;;;;;;20.80;13.90;;;15.00;99.90;;;;;;5092620;28;20089;-78
2022/10/25 12:44:31;;;;;;;27.83;15.60;;;15.00;99.90;;;;;;5101208;28;20039;-78
2022/10/25 12:47:27;;;;;;;18.17;13.48;;;15.00;99.90;;;;;;5112068;28;20043;-89
2022/10/25 12:50:19;;;;;;;19.40;13.35;;;15.10;99.90;;;;;;5104193;28;20023;-88